Spring's Hourly Summary for Sunday, March 19, 2017
Hour Temp
(f)
RH
(%)
Solar Rad.
(MJ/m2)
Rainfall
(in)
Wind
(mph)
3/19/2017 12:00 AM 71 80 0 0 3.3
3/19/2017 1:00 AM 70 82 0 0 3.25
3/19/2017 2:00 AM 68 88 0 0 3.38
3/19/2017 3:00 AM 68 92 0 0 3.17
3/19/2017 4:00 AM 67 94 0 0 2.81
3/19/2017 5:00 AM 66 95 0 0 1.94
3/19/2017 6:00 AM 65 97 0 0 0.41
3/19/2017 7:00 AM 64 98 0 0 0
3/19/2017 8:00 AM 62 98 0.05 0 0
3/19/2017 9:00 AM 64 99 0.31 0 0.69
3/19/2017 10:00 AM 67 84 1.2 0 1.93
3/19/2017 11:00 AM 72 70 2.2 0 4.27
3/19/2017 12:00 PM 76 61 2.75 0 3.81
3/19/2017 1:00 PM 77 50 2.57 0 3.65
3/19/2017 2:00 PM 79 49 2.76 0 3.92
3/19/2017 3:00 PM 80 44 2.14 0 3.85
3/19/2017 4:00 PM 81 41 2.28 0 6.52
3/19/2017 5:00 PM 82 38 2 0 6.35
3/19/2017 6:00 PM 82 41 1.03 0 5.42
3/19/2017 7:00 PM 81 43 0.51 0 5.08
3/19/2017 8:00 PM 77 60 0.05 0 6.77
3/19/2017 9:00 PM 75 70 0 0 6.71
3/19/2017 10:00 PM 72 76 0 0 6.08
3/19/2017 11:00 PM 71 81 0 0 6.08
Data Summary 72 72 19.85 0.00 3.72